createdAt,value
2022-10-05T00:00:14.152Z,10.68
2022-10-05T00:03:11.036Z,10.80
2022-10-05T00:05:39.733Z,10.34
2022-10-05T00:08:14.717Z,10.67
2022-10-05T00:10:43.966Z,10.36
2022-10-05T00:13:16.217Z,10.62
2022-10-05T00:15:45.263Z,10.36
2022-10-05T00:18:17.439Z,10.53
2022-10-05T00:20:46.677Z,10.22
2022-10-05T00:23:19.846Z,10.51
2022-10-05T00:25:48.509Z,10.22
2022-10-05T00:28:19.795Z,10.56
2022-10-05T00:30:48.232Z,10.23
2022-10-05T00:33:16.465Z,10.10
2022-10-05T00:35:44.738Z,10.25
2022-10-05T00:38:12.891Z,10.39
2022-10-05T00:40:54.554Z,10.97
2022-10-05T00:43:44.969Z,10.97
2022-10-05T00:46:16.569Z,10.94
2022-10-05T00:48:54.510Z,11.07
2022-10-05T00:51:26.796Z,10.91
2022-10-05T00:54:03.311Z,10.86
2022-10-05T00:56:43.429Z,11.06
2022-10-05T00:59:19.747Z,10.99
2022-10-05T01:01:52.202Z,10.99
2022-10-05T01:04:23.565Z,10.99
2022-10-05T01:07:01.218Z,10.98
2022-10-05T01:09:34.711Z,11.09
2022-10-05T01:12:08.873Z,11.27
2022-10-05T01:14:44.789Z,11.15
2022-10-05T01:17:18.495Z,11.07
2022-10-05T01:20:08.325Z,11.33
2022-10-05T01:22:48.727Z,11.19
2022-10-05T01:25:21.422Z,11.67
2022-10-05T01:28:01.448Z,11.26
2022-10-05T01:30:34.522Z,11.10
2022-10-05T01:33:07.254Z,11.07
2022-10-05T01:35:44.267Z,11.08
2022-10-05T01:38:21.907Z,11.05
2022-10-05T01:40:56.022Z,10.93
2022-10-05T01:43:32.848Z,10.94
2022-10-05T01:46:04.676Z,10.95
2022-10-05T01:48:38.693Z,10.97
2022-10-05T01:51:13.795Z,10.86
2022-10-05T01:53:51.199Z,10.76
2022-10-05T01:56:25.978Z,10.62
2022-10-05T01:59:03.152Z,10.59
2022-10-05T02:01:37.758Z,10.63
2022-10-05T02:04:11.502Z,10.58
2022-10-05T02:06:42.812Z,10.55
2022-10-05T02:09:14.679Z,10.52
2022-10-05T02:11:46.027Z,10.44
2022-10-05T02:14:19.226Z,10.55
2022-10-05T02:16:48.890Z,10.26
2022-10-05T02:19:22.126Z,10.56
2022-10-05T02:21:54.723Z,10.39
2022-10-05T02:24:24.976Z,10.44
2022-10-05T02:26:54.733Z,10.54
2022-10-05T02:29:26.896Z,10.66
2022-10-05T02:31:59.033Z,10.81
2022-10-05T02:34:28.961Z,10.71
2022-10-05T02:37:08.796Z,10.55
2022-10-05T02:39:43.597Z,10.51
2022-10-05T02:42:16.848Z,10.55
2022-10-05T02:44:50.867Z,10.53
2022-10-05T02:47:24.998Z,10.63
2022-10-05T02:49:57.687Z,10.50
2022-10-05T02:52:28.537Z,10.41
2022-10-05T02:55:03.731Z,10.56
2022-10-05T02:57:36.868Z,10.60
2022-10-05T03:00:10.409Z,10.57
2022-10-05T03:02:43.050Z,10.51
2022-10-05T03:05:19.083Z,10.48
2022-10-05T03:07:53.401Z,10.45
2022-10-05T03:10:28.154Z,10.25
2022-10-05T03:13:02.308Z,10.39
2022-10-05T03:15:52.626Z,10.69
2022-10-05T03:18:30.770Z,10.42
2022-10-05T03:21:08.051Z,10.42
2022-10-05T03:23:45.889Z,10.49
2022-10-05T03:26:27.702Z,10.60
2022-10-05T03:29:00.307Z,10.36
2022-10-05T03:31:34.054Z,10.30
2022-10-05T03:34:08.057Z,10.41
2022-10-05T03:36:42.518Z,10.52
2022-10-05T03:39:16.214Z,10.42
2022-10-05T03:41:48.848Z,10.38
2022-10-05T03:44:25.706Z,10.35
2022-10-05T03:47:06.984Z,10.25
2022-10-05T03:49:37.987Z,10.65
2022-10-05T03:52:11.228Z,10.07
2022-10-05T03:54:41.549Z,9.93
2022-10-05T03:57:12.768Z,9.91
2022-10-05T03:59:45.644Z,9.99
2022-10-05T04:02:22.072Z,10.13
2022-10-05T04:04:54.379Z,10.00
2022-10-05T04:07:31.013Z,10.10
2022-10-05T04:09:59.638Z,9.66
2022-10-05T04:12:30.579Z,9.87
2022-10-05T04:15:01.402Z,9.86
2022-10-05T04:17:34.476Z,10.03
2022-10-05T04:20:06.336Z,9.96
2022-10-05T04:22:38.533Z,10.14
2022-10-05T04:25:15.711Z,10.44
2022-10-05T04:27:46.896Z,10.27
2022-10-05T04:30:17.645Z,10.24
2022-10-05T04:32:51.057Z,10.39
2022-10-05T04:35:30.931Z,10.42
2022-10-05T04:38:09.715Z,10.41
2022-10-05T04:40:45.878Z,10.45
2022-10-05T04:43:17.618Z,10.32
2022-10-05T04:46:16.114Z,10.59
2022-10-05T04:48:58.820Z,10.59
2022-10-05T04:51:36.900Z,10.43
2022-10-05T04:54:15.448Z,10.57
2022-10-05T04:56:47.146Z,10.46
2022-10-05T04:59:53.160Z,10.69
2022-10-05T05:02:28.076Z,10.67
2022-10-05T05:05:23.183Z,10.67
2022-10-05T05:07:55.750Z,10.62
2022-10-05T05:10:51.564Z,10.90
2022-10-05T05:13:34.410Z,10.79
2022-10-05T05:16:06.439Z,10.63
2022-10-05T05:18:55.558Z,10.98
2022-10-05T05:21:34.483Z,10.97
2022-10-05T05:24:07.012Z,11.11
2022-10-05T05:26:47.042Z,11.56
2022-10-05T05:29:19.081Z,11.90
2022-10-05T05:31:50.382Z,12.12
2022-10-05T05:34:33.530Z,12.61
2022-10-05T05:37:07.840Z,12.50
2022-10-05T05:39:43.578Z,12.29
2022-10-05T05:42:20.738Z,12.34
2022-10-05T05:44:52.015Z,12.27
2022-10-05T05:47:20.839Z,12.86
2022-10-05T05:50:05.589Z,12.73
2022-10-05T05:52:40.741Z,13.58
2022-10-05T05:55:15.665Z,14.36
2022-10-05T05:57:46.292Z,14.84
2022-10-05T06:00:20.609Z,15.88
2022-10-05T06:02:53.954Z,16.24
2022-10-05T06:05:29.041Z,16.96
2022-10-05T06:07:59.762Z,16.98
2022-10-05T06:10:33.650Z,17.24
2022-10-05T06:13:06.868Z,17.48
2022-10-05T06:15:37.470Z,17.25
2022-10-05T06:18:11.012Z,16.79
2022-10-05T06:20:42.335Z,15.78
2022-10-05T06:23:16.833Z,15.33
2022-10-05T06:25:56.073Z,15.85
2022-10-05T06:28:26.297Z,16.86
2022-10-05T06:31:03.209Z,18.34
2022-10-05T06:33:44.177Z,19.33
2022-10-05T06:36:22.146Z,20.43
2022-10-05T06:39:06.291Z,21.49
2022-10-05T06:41:43.177Z,22.19
2022-10-05T06:44:14.808Z,23.23
2022-10-05T06:46:51.893Z,24.42
2022-10-05T06:49:21.880Z,25.01
2022-10-05T06:51:54.222Z,25.94
2022-10-05T06:54:31.906Z,26.95
2022-10-05T06:57:06.098Z,27.43
2022-10-05T06:59:39.145Z,27.54
2022-10-05T07:02:11.660Z,27.05
2022-10-05T07:04:52.471Z,26.89
2022-10-05T07:07:25.108Z,26.47
2022-10-05T07:10:03.466Z,26.49
2022-10-05T07:12:45.234Z,26.55
2022-10-05T07:15:39.817Z,26.88
2022-10-05T07:18:25.330Z,26.67
2022-10-05T07:20:58.932Z,26.44
2022-10-05T07:23:38.970Z,26.45
2022-10-05T07:26:11.704Z,26.03
2022-10-05T07:28:46.386Z,25.36
2022-10-05T07:31:19.760Z,25.15
2022-10-05T07:33:53.357Z,25.28
2022-10-05T07:36:49.696Z,25.42
2022-10-05T07:39:42.025Z,26.14
2022-10-05T07:42:24.981Z,26.91
2022-10-05T07:44:57.304Z,26.81
2022-10-05T07:47:30.323Z,26.80
2022-10-05T07:50:02.608Z,26.57
2022-10-05T07:52:34.988Z,26.70
2022-10-05T07:55:06.563Z,26.86
2022-10-05T07:57:40.739Z,27.03
2022-10-05T08:00:15.054Z,27.29
2022-10-05T08:02:47.030Z,27.72
2022-10-05T08:05:21.054Z,28.23
2022-10-05T08:07:52.875Z,28.56
2022-10-05T08:10:31.408Z,29.22
2022-10-05T08:13:08.655Z,29.72
2022-10-05T08:15:43.132Z,29.24
2022-10-05T08:18:19.038Z,28.82
2022-10-05T08:20:49.137Z,28.60
2022-10-05T08:23:23.105Z,29.29
2022-10-05T08:25:58.727Z,29.30
2022-10-05T08:28:32.961Z,28.53
2022-10-05T08:31:06.093Z,27.64
2022-10-05T08:33:39.507Z,26.65
2022-10-05T08:36:10.868Z,25.49
2022-10-05T08:38:39.905Z,24.78
2022-10-05T08:41:34.292Z,25.49
2022-10-05T08:44:38.098Z,26.30
2022-10-05T08:47:19.754Z,27.09
2022-10-05T08:50:01.480Z,27.66
2022-10-05T08:52:30.269Z,26.66
2022-10-05T08:55:30.990Z,26.46
2022-10-05T08:58:16.955Z,25.83
2022-10-05T09:00:55.323Z,25.98
2022-10-05T09:03:49.886Z,26.02
2022-10-05T09:06:34.673Z,26.64
2022-10-05T09:09:32.295Z,27.00
2022-10-05T09:12:18.571Z,25.98
2022-10-05T09:15:13.713Z,25.35
2022-10-05T09:18:25.553Z,24.95
2022-10-05T09:20:54.735Z,24.24
2022-10-05T09:23:38.193Z,24.43
2022-10-05T09:26:24.381Z,23.95
2022-10-05T09:29:03.356Z,24.17
2022-10-05T09:31:50.092Z,24.52
2022-10-05T09:34:35.586Z,24.56
2022-10-05T09:37:30.094Z,24.45
2022-10-05T09:40:29.706Z,23.98
2022-10-05T09:43:07.020Z,23.10
2022-10-05T09:45:54.431Z,23.07
2022-10-05T09:48:59.184Z,23.91
2022-10-05T09:52:08.293Z,24.46
2022-10-05T09:55:26.954Z,25.33
2022-10-05T09:58:33.407Z,26.39
2022-10-05T10:01:33.234Z,28.21
2022-10-05T10:04:18.941Z,28.95
2022-10-05T10:07:25.159Z,29.91
2022-10-05T10:10:24.064Z,30.10
2022-10-05T10:13:09.354Z,30.16
2022-10-05T10:16:05.872Z,30.39
2022-10-05T10:19:00.688Z,30.39
2022-10-05T10:21:42.253Z,30.32
2022-10-05T10:24:18.387Z,30.63
2022-10-05T10:27:11.615Z,30.99
2022-10-05T10:30:05.891Z,31.28
2022-10-05T10:33:15.621Z,31.37
2022-10-05T10:35:47.170Z,30.37
2022-10-05T10:38:31.899Z,29.78
2022-10-05T10:41:22.821Z,28.86
2022-10-05T10:44:24.282Z,28.17
2022-10-05T10:46:55.020Z,28.20
2022-10-05T10:49:37.312Z,27.16
2022-10-05T10:52:27.473Z,27.21
2022-10-05T10:55:17.389Z,27.00
2022-10-05T10:58:04.099Z,26.61
2022-10-05T11:00:44.232Z,26.81
2022-10-05T11:03:53.996Z,27.11
2022-10-05T11:06:32.933Z,26.71
2022-10-05T11:09:33.872Z,26.41
2022-10-05T11:12:07.539Z,26.65
2022-10-05T11:14:46.759Z,26.12
2022-10-05T11:17:33.528Z,26.20
2022-10-05T11:20:09.430Z,25.92
2022-10-05T11:22:51.838Z,25.82
2022-10-05T11:25:32.394Z,25.73
2022-10-05T11:28:34.759Z,25.47
2022-10-05T11:31:45.313Z,25.33
2022-10-05T11:34:59.677Z,25.38
2022-10-05T11:37:57.528Z,25.65
2022-10-05T11:41:01.520Z,26.18
2022-10-05T11:43:54.565Z,26.23
2022-10-05T11:46:29.471Z,25.80
2022-10-05T11:49:09.816Z,25.47
2022-10-05T11:51:43.362Z,25.15
2022-10-05T11:54:23.630Z,25.19
2022-10-05T11:56:55.007Z,24.72
2022-10-05T11:59:30.149Z,24.61
2022-10-05T12:02:08.180Z,24.34
2022-10-05T12:04:45.530Z,24.49
2022-10-05T12:07:20.498Z,24.42
2022-10-05T12:10:17.548Z,24.42
2022-10-05T12:12:55.455Z,24.25
2022-10-05T12:15:27.371Z,23.83
2022-10-05T12:18:04.878Z,23.58
2022-10-05T12:20:36.719Z,23.12
2022-10-05T12:23:08.384Z,23.51
2022-10-05T12:25:40.288Z,23.39
2022-10-05T12:28:12.828Z,23.46
2022-10-05T12:31:01.611Z,23.79
2022-10-05T12:33:35.501Z,23.49
2022-10-05T12:36:07.437Z,23.50
2022-10-05T12:38:38.895Z,23.13
2022-10-05T12:41:08.354Z,23.51
2022-10-05T12:43:47.225Z,23.21
2022-10-05T12:46:21.548Z,23.04
2022-10-05T12:49:13.227Z,23.17
2022-10-05T12:51:43.830Z,23.01
2022-10-05T12:54:18.660Z,23.33
2022-10-05T12:56:53.982Z,23.43
2022-10-05T12:59:32.280Z,23.41
2022-10-05T13:02:04.155Z,23.00
2022-10-05T13:04:40.946Z,23.07
2022-10-05T13:07:23.120Z,23.26
2022-10-05T13:09:58.736Z,23.08
2022-10-05T13:12:36.484Z,23.28
2022-10-05T13:15:11.941Z,23.27
2022-10-05T13:17:45.725Z,22.93
2022-10-05T13:20:21.732Z,22.83
2022-10-05T13:22:55.266Z,22.61
2022-10-05T13:25:28.610Z,22.52
2022-10-05T13:28:10.623Z,22.45
2022-10-05T13:30:41.112Z,22.19
2022-10-05T13:33:18.185Z,22.40
2022-10-05T13:35:52.266Z,22.26
2022-10-05T13:38:27.145Z,21.89
2022-10-05T13:41:02.206Z,22.02
2022-10-05T13:43:39.665Z,22.00
2022-10-05T13:46:11.834Z,21.92
2022-10-05T13:48:51.042Z,22.02
2022-10-05T13:51:23.654Z,21.93
2022-10-05T13:53:57.763Z,21.86
2022-10-05T13:56:30.470Z,21.73
2022-10-05T13:59:07.798Z,21.61
2022-10-05T14:01:42.588Z,21.56
2022-10-05T14:04:18.037Z,21.53
2022-10-05T14:06:48.744Z,21.37
2022-10-05T14:09:30.194Z,21.31
2022-10-05T14:12:14.314Z,21.35
2022-10-05T14:14:46.933Z,21.33
2022-10-05T14:17:17.735Z,21.32
2022-10-05T14:19:48.464Z,21.38
2022-10-05T14:22:24.217Z,21.74
2022-10-05T14:24:55.656Z,21.49
2022-10-05T14:27:26.591Z,21.48
2022-10-05T14:29:58.318Z,21.31
2022-10-05T14:32:28.651Z,20.85
2022-10-05T14:35:01.382Z,21.08
2022-10-05T14:37:44.416Z,21.02
2022-10-05T14:40:33.667Z,21.27
2022-10-05T14:43:16.681Z,20.98
2022-10-05T14:45:55.177Z,21.05
2022-10-05T14:48:24.191Z,20.41
2022-10-05T14:50:55.132Z,20.51
2022-10-05T14:53:26.320Z,20.77
2022-10-05T14:56:27.611Z,20.89
2022-10-05T14:59:23.317Z,21.01
2022-10-05T15:01:57.548Z,20.56
2022-10-05T15:04:37.012Z,20.58
2022-10-05T15:07:19.561Z,20.62
2022-10-05T15:10:01.699Z,20.55
2022-10-05T15:12:32.972Z,20.21
2022-10-05T15:15:06.627Z,20.31
2022-10-05T15:17:38.571Z,20.06
2022-10-05T15:20:18.659Z,20.12
2022-10-05T15:22:51.566Z,19.95
2022-10-05T15:25:27.898Z,19.73
2022-10-05T15:28:08.319Z,19.87
2022-10-05T15:30:39.420Z,19.47
2022-10-05T15:33:14.237Z,19.56
2022-10-05T15:35:48.875Z,19.44
2022-10-05T15:38:22.217Z,19.47
2022-10-05T15:40:59.769Z,19.43
2022-10-05T15:43:36.072Z,19.41
2022-10-05T15:46:08.751Z,19.18
2022-10-05T15:48:47.065Z,19.34
2022-10-05T15:51:22.509Z,19.13
2022-10-05T15:54:16.002Z,19.05
2022-10-05T15:56:49.394Z,19.01
2022-10-05T15:59:24.664Z,18.84
2022-10-05T16:01:55.779Z,18.57
2022-10-05T16:04:24.735Z,19.34
2022-10-05T16:07:14.111Z,18.62
2022-10-05T16:09:52.025Z,18.82
2022-10-05T16:12:30.628Z,18.78
2022-10-05T16:15:07.013Z,18.75
2022-10-05T16:17:51.160Z,18.83
2022-10-05T16:20:30.336Z,18.79
2022-10-05T16:23:04.275Z,18.72
2022-10-05T16:25:44.223Z,18.70
2022-10-05T16:28:21.555Z,18.62
2022-10-05T16:31:09.796Z,18.56
2022-10-05T16:33:48.197Z,18.51
2022-10-05T16:36:23.002Z,18.37
2022-10-05T16:38:57.861Z,18.43
2022-10-05T16:41:42.994Z,18.38
2022-10-05T16:44:18.949Z,18.31
2022-10-05T16:46:51.556Z,18.27
2022-10-05T16:49:29.832Z,18.45
2022-10-05T16:52:11.703Z,18.35
2022-10-05T16:54:47.502Z,18.27
2022-10-05T16:57:21.104Z,18.27
2022-10-05T17:00:12.181Z,18.84
2022-10-05T17:02:58.788Z,18.48
2022-10-05T17:05:40.393Z,18.37
2022-10-05T17:08:36.825Z,18.27
2022-10-05T17:11:15.983Z,17.86
2022-10-05T17:14:26.698Z,18.36
2022-10-05T17:17:17.715Z,18.08
2022-10-05T17:19:54.106Z,17.94
2022-10-05T17:22:26.736Z,17.73
2022-10-05T17:25:00.688Z,17.85
2022-10-05T17:27:35.368Z,17.98
2022-10-05T17:30:37.499Z,18.19
2022-10-05T17:33:20.936Z,18.03
2022-10-05T17:35:55.317Z,17.92
2022-10-05T17:38:24.651Z,17.70
2022-10-05T17:41:21.756Z,18.30
2022-10-05T17:44:24.564Z,18.32
2022-10-05T17:46:57.915Z,17.73
2022-10-05T17:50:16.723Z,18.19
2022-10-05T17:53:03.815Z,17.60
2022-10-05T17:55:50.130Z,18.00
2022-10-05T17:58:58.424Z,18.09
2022-10-05T18:01:30.450Z,17.55
2022-10-05T18:04:35.488Z,18.08
2022-10-05T18:07:17.261Z,17.83
2022-10-05T18:09:58.818Z,18.00
2022-10-05T18:12:43.118Z,17.95
2022-10-05T18:15:31.389Z,17.80
2022-10-05T18:18:20.618Z,17.55
2022-10-05T18:21:08.735Z,17.98
2022-10-05T18:23:38.669Z,17.61
2022-10-05T18:26:09.330Z,17.56
2022-10-05T18:28:48.241Z,17.85
2022-10-05T18:31:23.677Z,17.62
2022-10-05T18:34:19.249Z,17.88
2022-10-05T18:36:57.282Z,17.52
2022-10-05T18:39:50.593Z,17.52
2022-10-05T18:42:37.465Z,17.39
2022-10-05T18:45:18.037Z,17.27
2022-10-05T18:47:50.448Z,17.12
2022-10-05T18:50:25.476Z,17.11
2022-10-05T18:53:08.560Z,17.14
2022-10-05T18:55:42.307Z,17.06
2022-10-05T18:58:22.502Z,16.94
2022-10-05T19:01:02.747Z,17.12
2022-10-05T19:03:37.609Z,17.00
2022-10-05T19:06:13.483Z,16.95
2022-10-05T19:08:51.088Z,16.90
2022-10-05T19:11:24.349Z,16.94
2022-10-05T19:13:58.587Z,16.86
2022-10-05T19:16:41.437Z,16.84
2022-10-05T19:19:29.350Z,16.64
2022-10-05T19:22:03.348Z,16.57
2022-10-05T19:24:43.285Z,16.65
2022-10-05T19:27:20.958Z,16.61
2022-10-05T19:30:08.665Z,16.65
2022-10-05T19:32:47.219Z,16.51
2022-10-05T19:35:23.744Z,16.54
2022-10-05T19:38:00.731Z,16.45
2022-10-05T19:40:34.647Z,16.29
2022-10-05T19:43:24.374Z,16.55
2022-10-05T19:46:01.958Z,16.39
2022-10-05T19:48:35.687Z,16.23
2022-10-05T19:51:06.775Z,16.10
2022-10-05T19:53:38.485Z,16.12
2022-10-05T19:56:20.479Z,16.14
2022-10-05T19:58:52.018Z,15.92
2022-10-05T20:01:25.799Z,16.09
2022-10-05T20:03:54.812Z,15.75
2022-10-05T20:06:39.594Z,15.51
2022-10-05T20:09:20.730Z,16.10
2022-10-05T20:11:57.720Z,15.40
2022-10-05T20:14:32.981Z,15.96
2022-10-05T20:17:44.367Z,16.13
2022-10-05T20:20:24.789Z,16.20
2022-10-05T20:22:53.206Z,15.27
2022-10-05T20:25:32.064Z,15.93
2022-10-05T20:28:02.414Z,15.34
2022-10-05T20:30:34.034Z,15.67
2022-10-05T20:33:04.726Z,15.34
2022-10-05T20:35:32.949Z,15.31
2022-10-05T20:38:02.848Z,15.49
2022-10-05T20:40:31.851Z,15.50
2022-10-05T20:43:29.628Z,15.25
2022-10-05T20:45:59.455Z,15.48
2022-10-05T20:48:29.626Z,15.25
2022-10-05T20:50:58.630Z,15.31
2022-10-05T20:53:26.877Z,15.25
2022-10-05T20:56:02.577Z,15.10
2022-10-05T20:58:31.283Z,15.14
2022-10-05T21:01:19.983Z,15.40
2022-10-05T21:03:48.418Z,15.13
2022-10-05T21:06:18.048Z,15.13
2022-10-05T21:08:46.389Z,15.12
2022-10-05T21:11:15.050Z,15.24
2022-10-05T21:13:45.487Z,15.05
2022-10-05T21:16:17.641Z,15.44
2022-10-05T21:18:49.644Z,15.64
2022-10-05T21:21:19.105Z,15.35
2022-10-05T21:23:48.728Z,15.34
2022-10-05T21:26:16.928Z,15.01
2022-10-05T21:28:45.258Z,14.97
2022-10-05T21:31:15.032Z,15.32
2022-10-05T21:33:43.236Z,15.08
2022-10-05T21:36:11.398Z,15.00
2022-10-05T21:38:39.754Z,14.89
2022-10-05T21:41:07.961Z,14.88
2022-10-05T21:43:36.230Z,14.79
2022-10-05T21:46:05.198Z,14.84
2022-10-05T21:48:36.472Z,15.19
2022-10-05T21:51:05.094Z,15.73
2022-10-05T21:53:35.618Z,15.14
2022-10-05T21:56:06.120Z,15.12
2022-10-05T21:58:34.499Z,14.78
2022-10-05T22:01:03.207Z,14.68
2022-10-05T22:03:31.465Z,14.67
2022-10-05T22:06:01.407Z,14.88
2022-10-05T22:08:31.355Z,14.69
2022-10-05T22:10:59.959Z,14.49
2022-10-05T22:13:29.068Z,14.52
2022-10-05T22:15:57.868Z,14.34
2022-10-05T22:18:27.251Z,14.36
2022-10-05T22:20:56.280Z,14.10
2022-10-05T22:23:25.863Z,14.35
2022-10-05T22:25:54.503Z,14.26
2022-10-05T22:28:23.180Z,14.19
2022-10-05T22:30:51.434Z,14.08
2022-10-05T22:33:19.711Z,14.04
2022-10-05T22:35:48.304Z,14.02
2022-10-05T22:38:16.784Z,14.01
2022-10-05T22:40:46.360Z,14.21
2022-10-05T22:43:14.936Z,13.98
2022-10-05T22:45:43.182Z,13.97
2022-10-05T22:48:11.559Z,13.92
2022-10-05T22:50:40.020Z,13.92
2022-10-05T22:53:08.387Z,13.79
2022-10-05T22:55:36.566Z,13.78
2022-10-05T22:58:06.447Z,14.14
2022-10-05T23:00:56.444Z,13.86
2022-10-05T23:03:23.745Z,13.82
2022-10-05T23:05:57.906Z,14.21
2022-10-05T23:08:27.056Z,13.77
2022-10-05T23:10:55.778Z,13.75
2022-10-05T23:13:26.659Z,14.01
2022-10-05T23:15:55.224Z,13.71
2022-10-05T23:18:23.579Z,13.74
2022-10-05T23:20:55.521Z,14.10
2022-10-05T23:23:25.598Z,13.77
2022-10-05T23:25:53.935Z,13.68
2022-10-05T23:28:22.507Z,13.69
2022-10-05T23:30:52.423Z,13.82
2022-10-05T23:33:20.851Z,13.50
2022-10-05T23:35:51.265Z,13.39
2022-10-05T23:38:19.771Z,13.57
2022-10-05T23:40:48.570Z,13.57
2022-10-05T23:43:16.794Z,13.56
2022-10-05T23:45:45.624Z,13.56
2022-10-05T23:48:15.402Z,13.84
2022-10-05T23:50:44.177Z,13.54
2022-10-05T23:53:12.778Z,13.45
2022-10-05T23:55:40.965Z,13.46
2022-10-05T23:58:09.475Z,13.63
